ADDS METAR Data

Data at: 0531 UTC 19 Jan 2018

METAR for:KMQE (Milton/Blue Hills Ob, MA, US)
Text:KMQE 190456Z AUTO 30009KT M07/M10 A2990 RMK AO1 SLP145 T10721100 410171094
Temperature: -7.2°C ( 19°F)
Dewpoint:-10.0°C ( 14°F) [RH = 80%]
Pressure (altimeter):29.90 inches Hg (1012.6 mb) [Sea level pressure: 1014.5 mb]
Winds:from the WNW (300 degrees) at 10 MPH (9 knots; 4.6 m/s)
QC Flag:automated observation with no human augmentation